Time;durP1;ratioP1;P1;durP2;ratioP2;P2;SDS_P1;SDS_P2;PMS_P1;PMS_P2;Temp;Humidity;BMP_temperature;BMP_pressure;BME280_temperature;BME280_humidity;BME280_pressure;Samples;Min_cycle;Max_cycle;Signal;HPM_P1;HPM_P2
2022/05/03 00:00:14;;;;;;;6.90;5.00;;;;;;;;;;5081074;28;20020;-69
2022/05/03 00:02:44;;;;;;;10.63;6.05;;;;;;;;;;5081956;28;20517;-72
2022/05/03 00:05:13;;;;;;;7.18;4.95;;;;;;;;;;5083028;28;20043;-73
2022/05/03 00:07:54;;;;;;;5.15;4.13;;;;;;;;;;5081759;28;20048;-69
2022/05/03 00:10:31;;;;;;;5.68;5.05;;;;;;;;;;5082691;28;20447;-68
2022/05/03 00:12:57;;;;;;;6.13;4.18;;;;;;;;;;5082360;28;20462;-69
2022/05/03 00:15:22;;;;;;;5.35;4.25;;;;;;;;;;5082783;28;20401;-67
2022/05/03 00:17:48;;;;;;;9.40;3.78;;;;;;;;;;5082857;28;20038;-68
2022/05/03 00:20:14;;;;;;;6.45;4.40;;;;;;;;;;5082629;28;20498;-69
2022/05/03 00:22:39;;;;;;;4.97;3.92;;;;;;;;;;5082835;28;20075;-74
2022/05/03 00:25:05;;;;;;;5.80;4.68;;;;;;;;;;5082119;28;20036;-70
2022/05/03 00:27:30;;;;;;;7.45;4.50;;;;;;;;;;5082114;28;20027;-69
2022/05/03 00:29:57;;;;;;;4.63;3.45;;;;;;;;;;5082189;28;20032;-69
2022/05/03 00:32:23;;;;;;;4.47;3.90;;;;;;;;;;5082263;28;20454;-67
2022/05/03 00:34:52;;;;;;;6.38;4.80;;;;;;;;;;5082644;28;20057;-70
2022/05/03 00:37:17;;;;;;;10.63;7.07;;;;;;;;;;5082355;28;20093;-68
2022/05/03 00:39:43;;;;;;;6.95;5.18;;;;;;;;;;5082310;28;20418;-67
2022/05/03 00:42:27;;;;;;;6.25;5.03;;;;;;;;;;5081746;28;20548;-68
2022/05/03 00:45:04;;;;;;;8.88;6.38;;;;;;;;;;5082571;28;20118;-70
2022/05/03 00:47:39;;;;;;;5.07;4.57;;;;;;;;;;5082121;28;20032;-75
2022/05/03 00:50:08;;;;;;;5.57;4.63;;;;;;;;;;5081434;28;20020;-68
2022/05/03 00:52:33;;;;;;;;;;;;;;;;;;5081991;28;20031;-67
2022/05/03 00:55:21;;;;;;;5.37;4.83;;;;;;;;;;5081255;28;19912;-68
2022/05/03 00:58:05;;;;;;;8.02;4.53;;;;;;;;;;5081619;28;20024;-72
2022/05/03 01:00:31;;;;;;;6.82;5.03;;;;;;;;;;5081365;28;20470;-68
2022/05/03 01:03:18;;;;;;;7.85;5.28;;;;;;;;;;5080820;28;20138;-67
2022/05/03 01:06:02;;;;;;;5.43;4.45;;;;;;;;;;5081836;28;20100;-68
2022/05/03 01:08:51;;;;;;;4.55;4.13;;;;;;;;;;5081442;28;20142;-68
2022/05/03 01:11:33;;;;;;;5.88;4.88;;;;;;;;;;5074521;28;20047;-69
2022/05/03 01:14:03;;;;;;;6.50;5.32;;;;;;;;;;5080438;28;20042;-68
2022/05/03 01:16:32;;;;;;;7.05;5.30;;;;;;;;;;5081547;28;20120;-68
2022/05/03 01:19:08;;;;;;;5.73;4.87;;;;;;;;;;5081273;28;20475;-72
2022/05/03 01:22:12;;;;;;;5.55;5.03;;;;;;;;;;5080582;28;20035;-73
2022/05/03 01:24:49;;;;;;;6.70;4.85;;;;;;;;;;5037449;28;20089;-69
2022/05/03 01:27:33;;;;;;;5.20;4.47;;;;;;;;;;5036179;28;20060;-67
2022/05/03 01:30:00;;;;;;;4.50;4.10;;;;;;;;;;5066669;28;20040;-69
2022/05/03 01:32:26;;;;;;;4.93;4.43;;;;;;;;;;5062854;28;20030;-69
2022/05/03 01:34:52;;;;;;;4.97;4.47;;;;;;;;;;5082314;28;20696;-70
2022/05/03 01:37:18;;;;;;;4.85;4.45;;;;;;;;;;5080537;28;20020;-69
2022/05/03 01:40:03;;;;;;;8.70;4.57;;;;;;;;;;5081071;28;20046;-68
2022/05/03 01:42:35;;;;;;;5.45;4.68;;;;;;;;;;5079956;28;20024;-68
2022/05/03 01:45:05;;;;;;;4.95;4.55;;;;;;;;;;5080540;28;20024;-71
2022/05/03 01:47:42;;;;;;;5.63;4.57;;;;;;;;;;5081088;28;20126;-75
2022/05/03 01:50:19;;;;;;;6.13;5.55;;;;;;;;;;5079735;28;20500;-68
2022/05/03 01:53:07;;;;;;;13.23;11.85;;;;;;;;;;5079968;28;20036;-70
2022/05/03 01:55:51;;;;;;;6.10;5.50;;;;;;;;;;5070225;28;20526;-73
2022/05/03 01:58:23;;;;;;;5.25;4.40;;;;;;;;;;5080474;28;20351;-75
2022/05/03 02:01:23;;;;;;;6.07;4.45;;;;;;;;;;5081108;28;20035;-71
2022/05/03 02:03:50;;;;;;;4.80;4.35;;;;;;;;;;5037810;28;20029;-71
2022/05/03 02:06:16;;;;;;;6.68;5.07;;;;;;;;;;5071831;28;20058;-71
2022/05/03 02:08:47;;;;;;;5.82;4.40;;;;;;;;;;5081664;28;20035;-66
2022/05/03 02:11:21;;;;;;;5.25;4.75;;;;;;;;;;5081572;28;20354;-68
2022/05/03 02:16:41;;;;;;;6.55;5.13;;;;;;;;;;5081190;28;20047;-74
2022/05/03 02:19:07;;;;;;;7.80;5.38;;;;;;;;;;5080761;28;20020;-74
2022/05/03 02:21:50;;;;;;;6.03;5.32;;;;;;;;;;5081429;28;20040;-69
2022/05/03 02:24:36;;;;;;;5.72;4.57;;;;;;;;;;5081227;28;20043;-70
2022/05/03 02:27:02;;;;;;;7.93;4.80;;;;;;;;;;5059318;28;20153;-75
2022/05/03 02:29:33;;;;;;;5.72;4.85;;;;;;;;;;5081684;28;20395;-70
2022/05/03 02:32:08;;;;;;;6.40;5.00;;;;;;;;;;5084559;28;20031;-72
2022/05/03 02:34:43;;;;;;;6.45;4.72;;;;;;;;;;5084139;28;20465;-68
2022/05/03 02:37:08;;;;;;;7.00;5.22;;;;;;;;;;5084194;28;20380;-68
2022/05/03 02:39:35;;;;;;;7.82;4.55;;;;;;;;;;5084326;28;20093;-70
2022/05/03 02:42:01;;;;;;;4.75;4.28;;;;;;;;;;5085056;28;20028;-70
2022/05/03 02:44:28;;;;;;;5.15;4.65;;;;;;;;;;5085351;28;20032;-67
2022/05/03 02:46:57;;;;;;;5.25;4.75;;;;;;;;;;5084402;28;20016;-65
2022/05/03 02:49:41;;;;;;;5.37;4.90;;;;;;;;;;5084449;28;20055;-71
2022/05/03 02:52:09;;;;;;;6.35;4.45;;;;;;;;;;5085288;28;20245;-69
2022/05/03 02:54:40;;;;;;;5.22;4.70;;;;;;;;;;5085249;28;20354;-67
2022/05/03 02:57:06;;;;;;;5.00;4.50;;;;;;;;;;5084418;28;21970;-72
2022/05/03 03:03:00;;;;;;;7.00;5.35;;;;;;;;;;5083196;28;20370;-68
2022/05/03 03:05:27;;;;;;;6.20;4.80;;;;;;;;;;5084124;28;20044;-67
2022/05/03 03:07:55;;;;;;;5.72;5.05;;;;;;;;;;5083684;28;20048;-67
2022/05/03 03:10:22;;;;;;;5.63;5.13;;;;;;;;;;5084692;28;20047;-68
2022/05/03 03:12:53;;;;;;;6.05;5.40;;;;;;;;;;5084534;28;20020;-69
2022/05/03 03:15:25;;;;;;;6.53;5.45;;;;;;;;;;5083149;28;20062;-70
2022/05/03 03:17:51;;;;;;;5.82;5.10;;;;;;;;;;5084212;28;20024;-69
2022/05/03 03:20:21;;;;;;;8.25;5.50;;;;;;;;;;5084307;28;20039;-70
2022/05/03 03:22:47;;;;;;;7.13;5.35;;;;;;;;;;5083760;28;20110;-69
2022/05/03 03:25:14;;;;;;;6.25;5.40;;;;;;;;;;5084156;28;20023;-67
2022/05/03 03:27:41;;;;;;;6.07;5.57;;;;;;;;;;5084712;28;20032;-69
2022/05/03 03:30:08;;;;;;;7.57;5.63;;;;;;;;;;5083723;28;21107;-75
2022/05/03 03:32:35;;;;;;;6.07;5.47;;;;;;;;;;5082873;28;20023;-68
2022/05/03 03:35:01;;;;;;;6.72;5.82;;;;;;;;;;5084055;28;20430;-68
2022/05/03 03:37:30;;;;;;;5.65;5.00;;;;;;;;;;5083731;28;20036;-69
2022/05/03 03:39:56;;;;;;;10.43;5.75;;;;;;;;;;5082735;28;20020;-69
2022/05/03 03:42:21;;;;;;;6.80;6.13;;;;;;;;;;5083598;28;20039;-70
2022/05/03 03:44:47;;;;;;;7.20;6.20;;;;;;;;;;5082660;28;20115;-70
2022/05/03 03:47:13;;;;;;;5.65;5.15;;;;;;;;;;5082946;28;20476;-69
2022/05/03 03:49:38;;;;;;;6.53;5.45;;;;;;;;;;5083586;28;20020;-69
2022/05/03 03:52:05;;;;;;;6.07;5.55;;;;;;;;;;5083453;28;20027;-70
2022/05/03 03:54:30;;;;;;;7.40;6.10;;;;;;;;;;5083158;28;20418;-68
2022/05/03 03:56:56;;;;;;;6.57;5.97;;;;;;;;;;5082460;28;20077;-75
2022/05/03 03:59:22;;;;;;;6.25;5.65;;;;;;;;;;5083010;28;20031;-74
2022/05/03 04:01:50;;;;;;;7.10;6.40;;;;;;;;;;5083791;28;20103;-69
2022/05/03 04:04:16;;;;;;;8.43;6.53;;;;;;;;;;5082442;28;20024;-75
2022/05/03 04:06:41;;;;;;;7.50;6.80;;;;;;;;;;5082464;28;20444;-68
2022/05/03 04:09:07;;;;;;;7.43;6.60;;;;;;;;;;5082771;28;20732;-73
2022/05/03 04:11:43;;;;;;;8.05;7.15;;;;;;;;;;5082770;28;20033;-70
2022/05/03 04:14:08;;;;;;;8.63;7.47;;;;;;;;;;5064777;28;20031;-73
2022/05/03 04:16:33;;;;;;;7.72;6.93;;;;;;;;;;5083183;28;20016;-68
2022/05/03 04:18:58;;;;;;;8.20;6.60;;;;;;;;;;5082526;28;20446;-75
2022/05/03 04:21:24;;;;;;;7.05;6.32;;;;;;;;;;5082738;28;20455;-66
2022/05/03 04:23:49;;;;;;;6.95;6.32;;;;;;;;;;5082740;28;20139;-68
2022/05/03 04:26:14;;;;;;;6.20;5.60;;;;;;;;;;5080926;28;20031;-67
2022/05/03 04:28:40;;;;;;;6.72;6.13;;;;;;;;;;5081775;28;20028;-68
2022/05/03 04:31:06;;;;;;;7.05;6.43;;;;;;;;;;5064733;28;20028;-68
2022/05/03 04:33:31;;;;;;;8.15;6.97;;;;;;;;;;5081593;28;20020;-71
2022/05/03 04:35:56;;;;;;;6.40;5.90;;;;;;;;;;5082311;28;20222;-70
2022/05/03 04:38:22;;;;;;;8.00;7.30;;;;;;;;;;5081890;28;20027;-71
2022/05/03 04:40:47;;;;;;;7.22;6.53;;;;;;;;;;5082262;28;20047;-70
2022/05/03 04:43:12;;;;;;;7.13;6.47;;;;;;;;;;5082357;28;20086;-67
2022/05/03 04:45:38;;;;;;;7.07;6.40;;;;;;;;;;5081952;28;20671;-68
2022/05/03 04:48:04;;;;;;;7.10;6.40;;;;;;;;;;5082235;28;20411;-67
2022/05/03 04:50:29;;;;;;;6.88;6.28;;;;;;;;;;5082090;28;20035;-68
2022/05/03 04:52:56;;;;;;;6.90;6.25;;;;;;;;;;5081763;28;20028;-67
2022/05/03 04:55:23;;;;;;;7.95;6.60;;;;;;;;;;5081918;28;20465;-71
2022/05/03 04:57:49;;;;;;;9.95;7.38;;;;;;;;;;5082644;28;20028;-68
2022/05/03 05:00:14;;;;;;;8.20;6.68;;;;;;;;;;5081834;28;20051;-69
2022/05/03 05:02:39;;;;;;;7.10;6.40;;;;;;;;;;5082318;28;20144;-68
2022/05/03 05:05:05;;;;;;;7.95;7.15;;;;;;;;;;5081653;28;20059;-70
2022/05/03 05:07:30;;;;;;;7.25;6.55;;;;;;;;;;5082512;28;20438;-69
2022/05/03 05:12:40;;;;;;;10.07;7.28;;;;;;;;;;5081543;28;20039;-75
2022/05/03 05:15:05;;;;;;;8.30;7.40;;;;;;;;;;5080677;28;20024;-71
2022/05/03 05:17:33;;;;;;;9.70;8.73;;;;;;;;;;5081470;28;20023;-71
2022/05/03 05:19:58;;;;;;;10.13;9.13;;;;;;;;;;5081726;28;20404;-69
2022/05/03 05:22:23;;;;;;;9.88;8.85;;;;;;;;;;5082052;28;20024;-68
2022/05/03 05:24:50;;;;;;;9.95;8.90;;;;;;;;;;5081733;28;20047;-74
2022/05/03 05:27:16;;;;;;;9.75;7.95;;;;;;;;;;5082168;28;20538;-68
2022/05/03 05:29:41;;;;;;;8.63;7.72;;;;;;;;;;5081285;28;20110;-68
2022/05/03 05:32:07;;;;;;;12.38;7.38;;;;;;;;;;5081964;28;20022;-70
2022/05/03 05:34:32;;;;;;;10.65;9.23;;;;;;;;;;5081545;28;20442;-70
2022/05/03 05:36:58;;;;;;;8.95;7.97;;;;;;;;;;5081900;28;20020;-74
2022/05/03 05:39:23;;;;;;;13.30;7.70;;;;;;;;;;5081696;28;20024;-70
2022/05/03 05:41:56;;;;;;;14.98;10.65;;;;;;;;;;5082327;28;20031;-75
2022/05/03 05:44:21;;;;;;;10.68;9.55;;;;;;;;;;5076368;28;20065;-71
2022/05/03 05:46:46;;;;;;;16.20;13.50;;;;;;;;;;5069465;28;20043;-68
2022/05/03 05:49:12;;;;;;;43.10;33.83;;;;;;;;;;5081053;28;20424;-72
2022/05/03 05:51:37;;;;;;;59.28;47.00;;;;;;;;;;5080730;28;20020;-68
2022/05/03 05:54:02;;;;;;;125.47;99.25;;;;;;;;;;5082041;28;20028;-69
2022/05/03 05:56:28;;;;;;;104.60;82.95;;;;;;;;;;5081246;28;20028;-69
2022/05/03 05:58:53;;;;;;;52.08;43.63;;;;;;;;;;5074328;28;20358;-76
2022/05/03 06:01:26;;;;;;;47.22;39.33;;;;;;;;;;5074458;28;20043;-72
2022/05/03 06:03:51;;;;;;;13.13;10.30;;;;;;;;;;5082188;28;20450;-71
2022/05/03 06:06:16;;;;;;;19.30;14.55;;;;;;;;;;5085371;28;20052;-68
2022/05/03 06:08:41;;;;;;;19.00;14.10;;;;;;;;;;5085205;28;21077;-70
2022/05/03 06:11:08;;;;;;;89.85;64.25;;;;;;;;;;5084924;28;20077;-68
2022/05/03 06:13:34;;;;;;;23.70;17.33;;;;;;;;;;5086062;28;20024;-72
2022/05/03 06:16:06;;;;;;;18.13;14.65;;;;;;;;;;5085519;28;20100;-68
2022/05/03 06:18:31;;;;;;;26.05;20.60;;;;;;;;;;5084478;28;20206;-69
2022/05/03 06:20:57;;;;;;;31.67;20.08;;;;;;;;;;5085628;28;21348;-74
2022/05/03 06:23:22;;;;;;;55.92;35.10;;;;;;;;;;5086070;28;20038;-67
2022/05/03 06:25:48;;;;;;;36.88;23.05;;;;;;;;;;5085714;28;20043;-68
2022/05/03 06:28:14;;;;;;;22.90;17.55;;;;;;;;;;5085498;28;20020;-67
2022/05/03 06:30:40;;;;;;;30.95;21.75;;;;;;;;;;5085453;28;20431;-69
2022/05/03 06:33:06;;;;;;;29.08;21.88;;;;;;;;;;5084799;28;20024;-74
2022/05/03 06:35:31;;;;;;;28.40;21.10;;;;;;;;;;5085558;28;20035;-70
2022/05/03 06:37:56;;;;;;;29.33;21.08;;;;;;;;;;5085020;28;20442;-67
2022/05/03 06:40:22;;;;;;;21.85;15.35;;;;;;;;;;5085205;28;20112;-66
2022/05/03 06:42:47;;;;;;;88.88;50.08;;;;;;;;;;5085137;28;20024;-68
2022/05/03 06:45:13;;;;;;;26.38;15.23;;;;;;;;;;5084667;28;20032;-68
2022/05/03 06:47:39;;;;;;;48.90;27.95;;;;;;;;;;5083305;28;20063;-67
2022/05/03 06:50:05;;;;;;;82.72;48.70;;;;;;;;;;5085995;28;20052;-66
2022/05/03 06:52:30;;;;;;;27.92;17.52;;;;;;;;;;5085361;28;20070;-67
2022/05/03 06:54:55;;;;;;;37.80;20.73;;;;;;;;;;5084254;28;20443;-74
2022/05/03 06:57:21;;;;;;;40.22;21.35;;;;;;;;;;5085074;28;20489;-69
2022/05/03 06:59:46;;;;;;;50.45;28.45;;;;;;;;;;5084552;28;20518;-67
2022/05/03 07:02:12;;;;;;;15.40;9.75;;;;;;;;;;5084676;28;20376;-67
2022/05/03 07:04:37;;;;;;;17.75;11.50;;;;;;;;;;5084793;28;20038;-66
2022/05/03 07:07:03;;;;;;;22.42;12.38;;;;;;;;;;5084042;28;20371;-69
2022/05/03 07:09:28;;;;;;;38.65;22.25;;;;;;;;;;5083605;28;20032;-66
2022/05/03 07:11:53;;;;;;;25.83;15.07;;;;;;;;;;5084295;28;20012;-75
2022/05/03 07:14:19;;;;;;;25.70;15.57;;;;;;;;;;5084266;28;20344;-69
2022/05/03 07:16:44;;;;;;;35.05;17.67;;;;;;;;;;5083431;28;20020;-73
2022/05/03 07:24:38;;;;;;;38.28;21.58;;;;;;;;;;5083307;28;20058;-67
2022/05/03 07:27:04;;;;;;;21.33;12.43;;;;;;;;;;5083353;28;20051;-67
2022/05/03 07:29:29;;;;;;;23.00;12.93;;;;;;;;;;5084060;28;20107;-67
2022/05/03 07:31:55;;;;;;;16.05;9.90;;;;;;;;;;5083706;28;20123;-72
2022/05/03 07:34:20;;;;;;;36.10;22.05;;;;;;;;;;5084205;28;20115;-70
2022/05/03 07:36:45;;;;;;;27.90;15.45;;;;;;;;;;5084114;28;20041;-66
2022/05/03 07:39:11;;;;;;;19.77;11.90;;;;;;;;;;5083647;28;20035;-75
2022/05/03 07:41:36;;;;;;;11.88;7.13;;;;;;;;;;5083405;28;20089;-68
2022/05/03 07:44:02;;;;;;;13.05;8.43;;;;;;;;;;5084328;28;20431;-69
2022/05/03 07:46:27;;;;;;;19.40;13.55;;;;;;;;;;5083324;28;20081;-66
2022/05/03 07:48:54;;;;;;;26.33;17.42;;;;;;;;;;5083904;28;20430;-67
2022/05/03 07:51:20;;;;;;;29.98;19.95;;;;;;;;;;5084760;28;20085;-71
2022/05/03 07:53:45;;;;;;;22.95;14.52;;;;;;;;;;5083583;28;20032;-65
2022/05/03 07:56:11;;;;;;;28.25;18.13;;;;;;;;;;5084113;28;20024;-71
2022/05/03 07:58:36;;;;;;;22.27;15.20;;;;;;;;;;5084183;28;20028;-66
2022/05/03 08:01:01;;;;;;;12.10;8.98;;;;;;;;;;5083205;28;20036;-72
2022/05/03 08:03:27;;;;;;;17.10;12.00;;;;;;;;;;5083284;28;20024;-66
2022/05/03 08:05:52;;;;;;;17.27;12.13;;;;;;;;;;5083463;28;20115;-68
2022/05/03 08:08:18;;;;;;;14.45;9.60;;;;;;;;;;5083077;28;20026;-67
2022/05/03 08:10:45;;;;;;;9.90;8.27;;;;;;;;;;5082987;28;20024;-71
2022/05/03 08:13:10;;;;;;;11.43;9.23;;;;;;;;;;5082773;28;20115;-69
2022/05/03 08:15:35;;;;;;;11.00;9.70;;;;;;;;;;5083268;28;20465;-66
2022/05/03 08:18:01;;;;;;;12.98;9.63;;;;;;;;;;5083469;28;20408;-65
2022/05/03 08:20:26;;;;;;;13.40;9.13;;;;;;;;;;5082724;28;20355;-67
2022/05/03 08:22:52;;;;;;;10.38;6.63;;;;;;;;;;5083101;28;20451;-75
2022/05/03 08:25:17;;;;;;;20.88;15.30;;;;;;;;;;5082014;28;20090;-67
2022/05/03 08:27:43;;;;;;;9.50;8.50;;;;;;;;;;5081649;28;20046;-74
2022/05/03 08:30:09;;;;;;;10.30;7.70;;;;;;;;;;5082705;28;20432;-70
2022/05/03 08:32:34;;;;;;;11.20;9.18;;;;;;;;;;5081898;28;20028;-69
2022/05/03 08:34:59;;;;;;;18.83;12.73;;;;;;;;;;5083032;28;20085;-69
2022/05/03 08:42:52;;;;;;;28.20;16.83;;;;;;;;;;5083084;28;20051;-68
2022/05/03 08:45:18;;;;;;;10.65;8.75;;;;;;;;;;5082588;28;20339;-69
2022/05/03 08:47:44;;;;;;;18.58;12.48;;;;;;;;;;5083080;28;20030;-70
2022/05/03 08:50:11;;;;;;;25.23;16.67;;;;;;;;;;5082575;28;20027;-74
2022/05/03 08:52:39;;;;;;;17.70;14.20;;;;;;;;;;5082174;28;20036;-70
2022/05/03 08:55:05;;;;;;;11.68;9.55;;;;;;;;;;5082628;28;20354;-73
2022/05/03 08:57:31;;;;;;;21.95;14.43;;;;;;;;;;5082286;28;20032;-72
2022/05/03 08:59:56;;;;;;;16.05;10.80;;;;;;;;;;5081349;28;20046;-67
2022/05/03 09:02:22;;;;;;;21.08;15.93;;;;;;;;;;5083024;28;20036;-68
2022/05/03 09:04:47;;;;;;;13.73;8.65;;;;;;;;;;5082921;28;20039;-67
2022/05/03 09:07:16;;;;;;;9.57;7.47;;;;;;;;;;5081991;28;20050;-69
2022/05/03 09:09:42;;;;;;;10.75;8.43;;;;;;;;;;5081630;28;20077;-67
2022/05/03 09:12:20;;;;;;;8.43;7.45;;;;;;;;;;5082054;28;20035;-68
2022/05/03 09:14:46;;;;;;;10.82;8.70;;;;;;;;;;5082572;28;20435;-68
2022/05/03 09:17:11;;;;;;;11.52;9.32;;;;;;;;;;5082259;28;20032;-69
2022/05/03 09:19:37;;;;;;;13.80;12.40;;;;;;;;;;5081842;28;20024;-70
2022/05/03 09:25:02;;;;;;;10.77;8.25;;;;;;;;;;5080565;28;20074;-67
2022/05/03 09:27:27;;;;;;;10.70;9.60;;;;;;;;;;5081891;28;20020;-68
2022/05/03 09:30:06;;;;;;;9.45;8.50;;;;;;;;;;5081597;28;20421;-76
2022/05/03 09:32:37;;;;;;;14.23;7.80;;;;;;;;;;5080701;28;20020;-67
2022/05/03 09:35:03;;;;;;;8.45;6.45;;;;;;;;;;5081069;28;20265;-67
2022/05/03 09:37:42;;;;;;;10.80;7.57;;;;;;;;;;5082108;28;20020;-67
2022/05/03 09:40:08;;;;;;;6.45;5.80;;;;;;;;;;5081623;28;20071;-69
2022/05/03 09:42:35;;;;;;;9.20;7.30;;;;;;;;;;5081507;28;20058;-73
2022/05/03 09:45:02;;;;;;;11.82;7.43;;;;;;;;;;5081852;28;20024;-68
2022/05/03 09:47:28;;;;;;;8.68;7.47;;;;;;;;;;5081274;28;20363;-69
2022/05/03 09:49:54;;;;;;;7.35;6.65;;;;;;;;;;5081298;28;20035;-74
2022/05/03 09:52:27;;;;;;;10.57;7.03;;;;;;;;;;5080933;28;20028;-70
2022/05/03 09:54:55;;;;;;;7.63;6.47;;;;;;;;;;5081833;28;20518;-69
2022/05/03 09:57:24;;;;;;;10.60;7.05;;;;;;;;;;5080988;28;20024;-74
2022/05/03 09:59:51;;;;;;;7.13;5.50;;;;;;;;;;5081559;28;20085;-73
2022/05/03 10:02:20;;;;;;;7.38;5.80;;;;;;;;;;5080505;28;20073;-70
2022/05/03 10:04:45;;;;;;;;;;;;;;;;;;5082423;28;20031;-77
2022/05/03 10:07:11;;;;;;;28.10;17.17;;;;;;;;;;5080084;28;19920;-72
2022/05/03 10:09:37;;;;;;;10.20;6.68;;;;;;;;;;5081296;28;20248;-70
2022/05/03 10:12:04;;;;;;;17.70;12.45;;;;;;;;;;5081817;28;20035;-71
2022/05/03 10:14:29;;;;;;;10.48;7.07;;;;;;;;;;5081945;28;20024;-68
2022/05/03 10:22:24;;;;;;;8.15;6.28;;;;;;;;;;5080838;28;20038;-70
2022/05/03 10:24:56;;;;;;;25.65;14.27;;;;;;;;;;5080813;28;20173;-72
2022/05/03 10:27:22;;;;;;;23.05;13.50;;;;;;;;;;5080935;28;20027;-71
2022/05/03 10:30:07;;;;;;;26.10;15.68;;;;;;;;;;5080462;28;20032;-78
2022/05/03 10:32:32;;;;;;;43.25;25.55;;;;;;;;;;5082008;28;20061;-71
2022/05/03 10:34:59;;;;;;;11.27;7.30;;;;;;;;;;5081733;28;20024;-76
2022/05/03 10:37:34;;;;;;;7.65;5.57;;;;;;;;;;5080278;28;20435;-69
2022/05/03 10:40:12;;;;;;;20.40;16.80;;;;;;;;;;5080605;28;20511;-73
2022/05/03 10:42:37;;;;;;;43.75;29.48;;;;;;;;;;5081126;28;20024;-70
2022/05/03 10:45:07;;;;;;;24.83;14.93;;;;;;;;;;5081485;28;20495;-71
2022/05/03 10:47:32;;;;;;;;;;;;;;;;;;5082769;28;20036;-71
2022/05/03 10:50:12;;;;;;;14.63;8.60;;;;;;;;;;5081967;28;19919;-71
2022/05/03 10:52:42;;;;;;;12.38;6.03;;;;;;;;;;5087327;28;20029;-74
2022/05/03 10:55:08;;;;;;;6.88;5.30;;;;;;;;;;5088362;28;20080;-72
2022/05/03 10:57:54;;;;;;;11.68;7.07;;;;;;;;;;5087371;28;20753;-75
2022/05/03 11:00:38;;;;;;;5.82;4.65;;;;;;;;;;5073227;28;20056;-71
2022/05/03 11:03:19;;;;;;;8.93;6.85;;;;;;;;;;5086057;28;20055;-70
2022/05/03 11:05:44;;;;;;;10.52;8.45;;;;;;;;;;5084722;28;20062;-70
2022/05/03 11:08:17;;;;;;;11.73;8.65;;;;;;;;;;5085370;28;20060;-68
2022/05/03 11:10:42;;;;;;;10.25;7.93;;;;;;;;;;5084196;28;20024;-69
2022/05/03 11:13:27;;;;;;;7.68;5.35;;;;;;;;;;5084666;28;20111;-70
2022/05/03 11:16:11;;;;;;;7.30;5.07;;;;;;;;;;5084377;28;20027;-76
2022/05/03 11:18:38;;;;;;;9.63;7.78;;;;;;;;;;5084983;28;20439;-69
2022/05/03 11:21:12;;;;;;;5.35;3.90;;;;;;;;;;5084529;28;20036;-69
2022/05/03 11:23:46;;;;;;;5.43;4.05;;;;;;;;;;5066846;28;20036;-71
2022/05/03 11:26:11;;;;;;;5.88;4.60;;;;;;;;;;5084526;28;20016;-70
2022/05/03 11:28:36;;;;;;;6.70;4.03;;;;;;;;;;5084831;28;20115;-75
2022/05/03 11:31:02;;;;;;;7.43;4.15;;;;;;;;;;5084590;28;20032;-73
2022/05/03 11:33:27;;;;;;;7.30;5.18;;;;;;;;;;5084210;28;20028;-75
2022/05/03 11:35:54;;;;;;;9.07;5.70;;;;;;;;;;5085048;28;20024;-73
2022/05/03 11:38:19;;;;;;;4.10;3.70;;;;;;;;;;5085244;28;20164;-71
2022/05/03 11:40:45;;;;;;;6.18;3.08;;;;;;;;;;5084413;28;20121;-70
2022/05/03 11:43:13;;;;;;;7.20;4.88;;;;;;;;;;5085026;28;20019;-71
2022/05/03 11:45:38;;;;;;;6.68;4.20;;;;;;;;;;5085114;28;20031;-70
2022/05/03 11:48:03;;;;;;;7.35;3.67;;;;;;;;;;5084894;28;20038;-71
2022/05/03 11:56:00;;;;;;;10.27;4.90;;;;;;;;;;5084083;28;20035;-77
2022/05/03 11:58:27;;;;;;;10.35;6.65;;;;;;;;;;5084133;28;20028;-74
2022/05/03 12:00:52;;;;;;;20.85;13.88;;;;;;;;;;5084024;28;20036;-71
2022/05/03 12:03:18;;;;;;;13.48;9.07;;;;;;;;;;5083951;28;20032;-74
2022/05/03 12:06:00;;;;;;;12.32;6.75;;;;;;;;;;5083461;28;20427;-71
2022/05/03 12:08:25;;;;;;;6.72;4.20;;;;;;;;;;5084703;28;20089;-71
2022/05/03 12:10:51;;;;;;;9.48;5.63;;;;;;;;;;5083707;28;20031;-72
2022/05/03 12:13:24;;;;;;;6.15;3.78;;;;;;;;;;5083811;28;20028;-78
2022/05/03 12:15:59;;;;;;;4.65;2.85;;;;;;;;;;5083499;28;20035;-71
2022/05/03 12:18:32;;;;;;;4.63;2.78;;;;;;;;;;5083551;28;20073;-78
2022/05/03 12:21:08;;;;;;;5.15;3.60;;;;;;;;;;5083012;28;20439;-72
2022/05/03 12:23:34;;;;;;;4.72;3.30;;;;;;;;;;5084039;28;20024;-70
2022/05/03 12:26:00;;;;;;;7.63;5.50;;;;;;;;;;5083513;28;20020;-71
2022/05/03 12:28:54;;;;;;;8.25;4.40;;;;;;;;;;5083487;28;20028;-71
2022/05/03 12:31:20;;;;;;;9.05;4.95;;;;;;;;;;5073353;28;20044;-71
2022/05/03 12:33:48;;;;;;;5.93;4.55;;;;;;;;;;5082755;28;20016;-71
2022/05/03 12:36:32;;;;;;;9.45;5.65;;;;;;;;;;5082811;28;20605;-70
2022/05/03 12:39:07;;;;;;;10.98;7.88;;;;;;;;;;5083736;28;20407;-72
2022/05/03 12:41:34;;;;;;;8.02;4.72;;;;;;;;;;5083490;28;20251;-74
2022/05/03 12:44:00;;;;;;;10.88;5.47;;;;;;;;;;5082824;28;20497;-69
2022/05/03 12:46:27;;;;;;;11.35;7.15;;;;;;;;;;5082973;28;20077;-68
2022/05/03 12:48:52;;;;;;;12.73;9.85;;;;;;;;;;5083251;28;20069;-72
2022/05/03 12:51:17;;;;;;;15.48;9.68;;;;;;;;;;5082021;28;20028;-73
2022/05/03 12:53:46;;;;;;;21.20;14.27;;;;;;;;;;5082562;28;20050;-70
2022/05/03 12:58:58;;;;;;;4.65;3.13;;;;;;;;;;5082903;28;20085;-70
2022/05/03 13:01:23;;;;;;;7.90;5.65;;;;;;;;;;5082320;28;21085;-75
2022/05/03 13:03:49;;;;;;;8.40;5.18;;;;;;;;;;5082850;28;20067;-71
2022/05/03 13:06:15;;;;;;;7.05;4.40;;;;;;;;;;5082360;28;20086;-73
2022/05/03 13:08:40;;;;;;;3.40;3.10;;;;;;;;;;5083567;28;20063;-78
2022/05/03 13:11:05;;;;;;;10.38;7.10;;;;;;;;;;5082392;28;20024;-77
2022/05/03 13:13:31;;;;;;;7.55;4.03;;;;;;;;;;5082529;28;20039;-72
2022/05/03 13:15:56;;;;;;;6.03;3.83;;;;;;;;;;5083304;28;20028;-71
2022/05/03 13:18:21;;;;;;;15.60;9.05;;;;;;;;;;5082835;28;20023;-70
2022/05/03 13:20:47;;;;;;;6.82;4.50;;;;;;;;;;5082610;28;20028;-70
2022/05/03 13:23:14;;;;;;;5.03;3.67;;;;;;;;;;5065593;28;20241;-70
2022/05/03 13:25:39;;;;;;;6.25;5.22;;;;;;;;;;5081753;28;20101;-74
2022/05/03 13:28:06;;;;;;;5.40;3.13;;;;;;;;;;5080835;28;20082;-70
2022/05/03 13:30:31;;;;;;;9.48;8.30;;;;;;;;;;5082555;28;20778;-71
2022/05/03 13:32:57;;;;;;;8.25;6.43;;;;;;;;;;5081966;28;20591;-70
2022/05/03 13:40:51;;;;;;;4.25;3.00;;;;;;;;;;5082298;28;20059;-70
2022/05/03 13:43:17;;;;;;;6.55;3.38;;;;;;;;;;5082252;28;20083;-72
2022/05/03 13:45:42;;;;;;;2.35;2.05;;;;;;;;;;5082766;28;20435;-71
2022/05/03 13:48:08;;;;;;;4.78;3.10;;;;;;;;;;5081686;28;20077;-70
2022/05/03 13:50:33;;;;;;;3.97;2.00;;;;;;;;;;5082051;28;20051;-71
2022/05/03 13:52:58;;;;;;;3.88;2.13;;;;;;;;;;5081827;28;20051;-74
2022/05/03 13:55:23;;;;;;;5.20;2.60;;;;;;;;;;5082266;28;20466;-71
2022/05/03 13:57:49;;;;;;;4.28;2.90;;;;;;;;;;5082067;28;20056;-70
2022/05/03 14:00:14;;;;;;;3.90;2.65;;;;;;;;;;5081937;28;20122;-70
2022/05/03 14:02:41;;;;;;;4.03;2.53;;;;;;;;;;5083375;28;20092;-73
2022/05/03 14:05:06;;;;;;;4.53;3.80;;;;;;;;;;5082316;28;20031;-71
2022/05/03 14:07:32;;;;;;;5.85;3.90;;;;;;;;;;5082705;28;20048;-72
2022/05/03 14:09:57;;;;;;;5.53;2.90;;;;;;;;;;5082055;28;20024;-71
2022/05/03 14:12:23;;;;;;;5.88;3.60;;;;;;;;;;5064270;28;20044;-71
2022/05/03 14:14:48;;;;;;;5.55;3.17;;;;;;;;;;5082514;28;20020;-71
2022/05/03 14:17:13;;;;;;;4.07;2.78;;;;;;;;;;5081806;28;20355;-70
2022/05/03 14:19:39;;;;;;;9.73;3.65;;;;;;;;;;5081697;28;20077;-73
2022/05/03 14:22:05;;;;;;;8.65;4.63;;;;;;;;;;5081752;28;20099;-74
2022/05/03 14:24:30;;;;;;;7.80;5.85;;;;;;;;;;5081975;28;20124;-72
2022/05/03 14:26:55;;;;;;;6.47;5.28;;;;;;;;;;5085155;28;20030;-76
2022/05/03 14:29:21;;;;;;;7.20;4.35;;;;;;;;;;5084604;28;20434;-73
2022/05/03 14:31:46;;;;;;;3.30;3.00;;;;;;;;;;5085863;28;20039;-70
2022/05/03 14:34:11;;;;;;;6.28;4.10;;;;;;;;;;5086120;28;20070;-71
2022/05/03 14:36:36;;;;;;;5.82;4.20;;;;;;;;;;5085095;28;20435;-70
2022/05/03 14:39:03;;;;;;;8.15;3.90;;;;;;;;;;5085309;28;20036;-72
2022/05/03 14:41:28;;;;;;;7.65;6.00;;;;;;;;;;5086164;28;20038;-69
2022/05/03 14:43:53;;;;;;;4.95;4.03;;;;;;;;;;5085587;28;20040;-73
2022/05/03 14:46:19;;;;;;;3.58;2.70;;;;;;;;;;5085349;28;20402;-74
2022/05/03 14:48:44;;;;;;;3.70;2.70;;;;;;;;;;5086140;28;20056;-72
2022/05/03 14:51:09;;;;;;;4.18;2.90;;;;;;;;;;5084337;28;20042;-74
2022/05/03 14:53:35;;;;;;;10.18;5.43;;;;;;;;;;5089450;28;20065;-73
2022/05/03 15:04:12;;;;;;;4.43;3.55;;;;;;;;;;5085895;28;20066;-70
2022/05/03 15:06:41;;;;;;;7.78;3.00;;;;;;;;;;5084406;28;20071;-71
2022/05/03 15:09:06;;;;;;;5.93;4.32;;;;;;;;;;5085035;28;20081;-70
2022/05/03 15:11:33;;;;;;;8.15;5.20;;;;;;;;;;5084235;28;20374;-70
2022/05/03 15:13:58;;;;;;;6.90;4.15;;;;;;;;;;5083521;28;20028;-78
2022/05/03 15:16:23;;;;;;;4.80;3.60;;;;;;;;;;5084037;28;20028;-72
2022/05/03 15:18:49;;;;;;;3.92;2.83;;;;;;;;;;5084706;28;20039;-69
2022/05/03 15:21:14;;;;;;;4.15;2.85;;;;;;;;;;5085365;28;20031;-71
2022/05/03 15:26:24;;;;;;;4.47;2.78;;;;;;;;;;5084790;28;20039;-70
2022/05/03 15:28:49;;;;;;;2.95;2.10;;;;;;;;;;5084598;28;20020;-72
2022/05/03 15:31:14;;;;;;;4.18;2.78;;;;;;;;;;5084872;28;20035;-76
2022/05/03 15:33:40;;;;;;;4.03;2.58;;;;;;;;;;5084444;28;20458;-71